BAW82P EGLL-KLAS
Flight info
| Callsign | BAW82P |
|---|---|
| Flight time | N/A |
| Altitude | 30000 |
| Route | ULTIB T420 TNT UL28 PENIL DCT DEJEM DCT OZRAT DCT WETFI DCT REVNU DCT PIKIL/M082F300 NATA URTAK/N0486F300 DCT MCKEE DCT PIGLA DCT OMEVA DCT 50N098W DCT MOT DCT SWTHN DCT BOY DCT MLF DCT STEWW CHOWW4 |
| Aircraft | B77W/H-SDE1E2E3FGHIJ2J3J4J5M1RWXY/LB1D1 |
Departure
| Time | 2026-05-06 12:32 |
|---|---|
| Airport | London Heathrow Airport (EGLL) |
Arrival
| Time | N/A |
|---|---|
| Airport | Harry Reid International Airport (KLAS) |
| Time | Latitude | Longitude | Altitude | Speed | Heading |
|---|---|---|---|---|---|
| 2026-05-06 11:58 | 51.47123 | -0.47727 | 91 ft | 0 kts | 89° |
| 2026-05-06 12:22 | 51.47123 | -0.47733 | 94 ft | 3 kts | 89° |
| 2026-05-06 12:22 | 51.47123 | -0.47763 | 91 ft | 3 kts | 89° |
| 2026-05-06 12:22 | 51.47123 | -0.47778 | 91 ft | 0 kts | 79° |
| 2026-05-06 12:23 | 51.47122 | -0.47789 | 91 ft | 3 kts | 92° |
| 2026-05-06 12:23 | 51.47127 | -0.47820 | 91 ft | 3 kts | 130° |
| 2026-05-06 12:23 | 51.47139 | -0.47837 | 92 ft | 0 kts | 162° |
| 2026-05-06 12:23 | 51.47154 | -0.47842 | 91 ft | 3 kts | 170° |
| 2026-05-06 12:24 | 51.47159 | -0.47844 | 92 ft | 0 kts | 170° |
| 2026-05-06 12:26 | 51.47133 | -0.47849 | 95 ft | 9 kts | 189° |
| 2026-05-06 12:26 | 51.47067 | -0.47867 | 92 ft | 10 kts | 188° |
| 2026-05-06 12:27 | 51.47012 | -0.47870 | 92 ft | 10 kts | 181° |
| 2026-05-06 12:27 | 51.46944 | -0.47869 | 91 ft | 10 kts | 179° |
| 2026-05-06 12:27 | 51.46876 | -0.47868 | 91 ft | 10 kts | 180° |
| 2026-05-06 12:27 | 51.46808 | -0.47868 | 93 ft | 10 kts | 180° |
| 2026-05-06 12:28 | 51.46759 | -0.47881 | 91 ft | 4 kts | 227° |
| 2026-05-06 12:28 | 51.46746 | -0.47926 | 94 ft | 11 kts | 251° |
| 2026-05-06 12:28 | 51.46743 | -0.48034 | 93 ft | 3 kts | 270° |
| 2026-05-06 12:28 | 51.46743 | -0.48069 | 93 ft | 3 kts | 270° |
| 2026-05-06 12:29 | 51.46743 | -0.48097 | 94 ft | 6 kts | 271° |
| 2026-05-06 12:29 | 51.46743 | -0.48233 | 94 ft | 14 kts | 270° |
| 2026-05-06 12:29 | 51.46743 | -0.48390 | 91 ft | 14 kts | 269° |
| 2026-05-06 12:29 | 51.46742 | -0.48547 | 93 ft | 14 kts | 269° |
| 2026-05-06 12:30 | 51.46738 | -0.48688 | 91 ft | 11 kts | 257° |
| 2026-05-06 12:30 | 51.46677 | -0.48743 | 91 ft | 11 kts | 186° |
| 2026-05-06 12:30 | 51.46616 | -0.48762 | 94 ft | 7 kts | 197° |
| 2026-05-06 12:30 | 51.46566 | -0.48784 | 91 ft | 7 kts | 191° |
| 2026-05-06 12:31 | 51.46515 | -0.48771 | 95 ft | 7 kts | 155° |
| 2026-05-06 12:31 | 51.46485 | -0.48707 | 94 ft | 8 kts | 105° |
| 2026-05-06 12:31 | 51.46479 | -0.48618 | 92 ft | 12 kts | 91° |
| 2026-05-06 12:31 | 51.46479 | -0.48330 | 93 ft | 46 kts | 89° |
| 2026-05-06 12:32 | 51.46482 | -0.47354 | 92 ft | 128 kts | 90° |
| 2026-05-06 12:32 | 51.46487 | -0.45511 | 97 ft | 199 kts | 90° |
| 2026-05-06 12:32 | 51.46471 | -0.43185 | 677 ft | 213 kts | 89° |
| 2026-05-06 12:32 | 51.46539 | -0.40799 | 1619 ft | 212 kts | 73° |
| 2026-05-06 12:33 | 51.47277 | -0.38738 | 2088 ft | 223 kts | 44° |
| 2026-05-06 12:33 | 51.48360 | -0.36870 | 2281 ft | 241 kts | 50° |
| 2026-05-06 12:33 | 51.49431 | -0.34728 | 2818 ft | 248 kts | 51° |
| 2026-05-06 12:33 | 51.50529 | -0.32545 | 3502 ft | 252 kts | 50° |
| 2026-05-06 12:34 | 51.51646 | -0.30367 | 4205 ft | 254 kts | 50° |
| 2026-05-06 12:34 | 51.52716 | -0.28096 | 4776 ft | 257 kts | 62° |
| 2026-05-06 12:34 | 51.53332 | -0.25371 | 5299 ft | 262 kts | 72° |
| 2026-05-06 12:34 | 51.53887 | -0.22553 | 5907 ft | 266 kts | 70° |
| 2026-05-06 12:35 | 51.54560 | -0.19842 | 6496 ft | 265 kts | 54° |
| 2026-05-06 12:35 | 51.55956 | -0.17943 | 6962 ft | 268 kts | 19° |
| 2026-05-06 12:35 | 51.57798 | -0.17710 | 7496 ft | 270 kts | 344° |
| 2026-05-06 12:35 | 51.59409 | -0.19173 | 8036 ft | 272 kts | 317° |
| 2026-05-06 12:36 | 51.60777 | -0.21310 | 8528 ft | 276 kts | 320° |
| 2026-05-06 12:36 | 51.62303 | -0.23205 | 9129 ft | 276 kts | 325° |
| 2026-05-06 12:36 | 51.63847 | -0.25086 | 9665 ft | 280 kts | 323° |
| 2026-05-06 12:36 | 51.65425 | -0.26962 | 10200 ft | 285 kts | 326° |
| 2026-05-06 12:37 | 51.67129 | -0.28798 | 10395 ft | 305 kts | 327° |
| 2026-05-06 12:37 | 51.68981 | -0.30676 | 10560 ft | 325 kts | 328° |
| 2026-05-06 12:37 | 51.70974 | -0.32635 | 10729 ft | 346 kts | 329° |
| 2026-05-06 12:37 | 51.73059 | -0.34652 | 11068 ft | 359 kts | 329° |
| 2026-05-06 12:38 | 51.75241 | -0.36750 | 11600 ft | 368 kts | 329° |
| 2026-05-06 12:38 | 51.77470 | -0.38890 | 12276 ft | 372 kts | 329° |
| 2026-05-06 12:38 | 51.79703 | -0.41035 | 12992 ft | 375 kts | 328° |
| 2026-05-06 12:38 | 51.81951 | -0.43205 | 13673 ft | 378 kts | 328° |
| 2026-05-06 12:39 | 51.84217 | -0.45416 | 14316 ft | 382 kts | 328° |
| 2026-05-06 12:39 | 51.86503 | -0.47654 | 14951 ft | 386 kts | 328° |
| 2026-05-06 12:39 | 51.88780 | -0.49886 | 15574 ft | 389 kts | 328° |
| 2026-05-06 12:39 | 51.91110 | -0.52168 | 16182 ft | 393 kts | 328° |
| 2026-05-06 12:40 | 51.93464 | -0.54474 | 16818 ft | 396 kts | 328° |
| 2026-05-06 12:40 | 51.95829 | -0.56790 | 17433 ft | 399 kts | 328° |
| 2026-05-06 12:40 | 51.98225 | -0.59128 | 17993 ft | 403 kts | 328° |
| 2026-05-06 12:40 | 52.00644 | -0.61486 | 18561 ft | 407 kts | 328° |
| 2026-05-06 12:41 | 52.03050 | -0.63835 | 19139 ft | 409 kts | 327° |
| 2026-05-06 12:41 | 52.05503 | -0.66236 | 19706 ft | 412 kts | 327° |
| 2026-05-06 12:41 | 52.07971 | -0.68655 | 20236 ft | 415 kts | 327° |
| 2026-05-06 12:41 | 52.10454 | -0.71092 | 20735 ft | 419 kts | 327° |
| 2026-05-06 12:42 | 52.12962 | -0.73557 | 21236 ft | 422 kts | 327° |
| 2026-05-06 12:42 | 52.15485 | -0.76046 | 21745 ft | 424 kts | 327° |
| 2026-05-06 12:42 | 52.17992 | -0.78534 | 22209 ft | 427 kts | 327° |
| 2026-05-06 12:42 | 52.20548 | -0.81072 | 22689 ft | 430 kts | 327° |
| 2026-05-06 12:43 | 52.23114 | -0.83621 | 23130 ft | 434 kts | 327° |
| 2026-05-06 12:43 | 52.25700 | -0.86192 | 23598 ft | 436 kts | 327° |
| 2026-05-06 12:43 | 52.28313 | -0.88784 | 24036 ft | 439 kts | 327° |
| 2026-05-06 12:43 | 52.30936 | -0.91384 | 24445 ft | 442 kts | 327° |
| 2026-05-06 12:44 | 52.33574 | -0.94002 | 24828 ft | 445 kts | 327° |
| 2026-05-06 12:44 | 52.36203 | -0.96617 | 25234 ft | 447 kts | 327° |
| 2026-05-06 12:44 | 52.38870 | -0.99276 | 25615 ft | 450 kts | 327° |
| 2026-05-06 12:44 | 52.41546 | -1.01942 | 25980 ft | 452 kts | 327° |
| 2026-05-06 12:45 | 52.44256 | -1.04646 | 26346 ft | 455 kts | 327° |
| 2026-05-06 12:45 | 52.46936 | -1.07328 | 26713 ft | 456 kts | 327° |
| 2026-05-06 12:45 | 52.52364 | -1.12797 | 27544 ft | 457 kts | 326° |
| 2026-05-06 12:46 | 52.55090 | -1.15569 | 27838 ft | 461 kts | 326° |
| 2026-05-06 12:46 | 52.57819 | -1.18341 | 28126 ft | 463 kts | 326° |
| 2026-05-06 12:46 | 52.60578 | -1.21136 | 28436 ft | 466 kts | 326° |
| 2026-05-06 12:46 | 52.63347 | -1.23941 | 28742 ft | 467 kts | 326° |
| 2026-05-06 12:47 | 52.66131 | -1.26762 | 29023 ft | 469 kts | 326° |
| 2026-05-06 12:47 | 52.68884 | -1.29559 | 29283 ft | 471 kts | 326° |
| 2026-05-06 12:47 | 52.71681 | -1.32405 | 29540 ft | 473 kts | 326° |
| 2026-05-06 12:47 | 52.74488 | -1.35263 | 29804 ft | 474 kts | 326° |
| 2026-05-06 12:48 | 52.77312 | -1.38139 | 30139 ft | 473 kts | 326° |
| 2026-05-06 12:48 | 52.80114 | -1.40996 | 30501 ft | 471 kts | 326° |
| 2026-05-06 12:48 | 52.82904 | -1.43842 | 30843 ft | 470 kts | 326° |
| 2026-05-06 12:48 | 52.85685 | -1.46688 | 31138 ft | 470 kts | 326° |
| 2026-05-06 12:49 | 52.88464 | -1.49539 | 31431 ft | 469 kts | 326° |
| 2026-05-06 12:49 | 52.91213 | -1.52363 | 31693 ft | 469 kts | 326° |
| 2026-05-06 12:49 | 52.93998 | -1.55223 | 31947 ft | 469 kts | 326° |
| 2026-05-06 12:50 | 52.99576 | -1.60978 | 32035 ft | 471 kts | 325° |
| 2026-05-06 12:50 | 53.05093 | -1.66683 | 32023 ft | 467 kts | 325° |
| 2026-05-06 12:51 | 53.10608 | -1.72405 | 32030 ft | 465 kts | 325° |
| 2026-05-06 12:51 | 53.16100 | -1.78136 | 32029 ft | 465 kts | 325° |
| 2026-05-06 12:52 | 53.21476 | -1.84109 | 32028 ft | 461 kts | 316° |
| 2026-05-06 12:52 | 53.25595 | -1.92097 | 32043 ft | 456 kts | 300° |
| 2026-05-06 12:53 | 53.28461 | -2.01544 | 32045 ft | 456 kts | 294° |
| 2026-05-06 12:53 | 53.31241 | -2.11138 | 32051 ft | 459 kts | 294° |
| 2026-05-06 12:54 | 53.34065 | -2.20672 | 32047 ft | 460 kts | 294° |
| 2026-05-06 12:54 | 53.36604 | -2.30477 | 32042 ft | 457 kts | 286° |
| 2026-05-06 12:55 | 53.38506 | -2.40654 | 32050 ft | 457 kts | 286° |
| 2026-05-06 12:55 | 53.40395 | -2.50749 | 32044 ft | 456 kts | 286° |
| 2026-05-06 12:56 | 53.42309 | -2.60890 | 32044 ft | 455 kts | 286° |
| 2026-05-06 12:56 | 53.44218 | -2.71006 | 32045 ft | 454 kts | 286° |
| 2026-05-06 12:57 | 53.46107 | -2.81079 | 32044 ft | 454 kts | 286° |
| 2026-05-06 12:57 | 53.47983 | -2.91140 | 32047 ft | 454 kts | 286° |